Time;durP1;ratioP1;P1;durP2;ratioP2;P2;SDS_P1;SDS_P2;PMS_P1;PMS_P2;Temp;Humidity;BMP_temperature;BMP_pressure;BME280_temperature;BME280_humidity;BME280_pressure;Samples;Min_cycle;Max_cycle;Signal;HPM_P1;HPM_P2
2021/12/28 00:01:22;;;;;;;22.95;11.35;;;;;;;;;;4962417;28;20058;-79
2021/12/28 00:03:48;;;;;;;23.67;11.65;;;;;;;;;;4962567;28;20062;-79
2021/12/28 00:06:15;;;;;;;28.92;12.95;;;;;;;;;;4951371;28;20046;-79
2021/12/28 00:08:41;;;;;;;27.08;11.60;;;;;;;;;;4946589;28;20038;-79
2021/12/28 00:11:08;;;;;;;23.27;11.13;;;;;;;;;;4946849;28;20145;-79
2021/12/28 00:13:35;;;;;;;24.55;11.00;;;;;;;;;;4948798;28;20022;-79
2021/12/28 00:16:24;;;;;;;22.73;10.43;;;;;;;;;;4960074;28;20502;-79
2021/12/28 00:18:47;;;;;;;26.98;12.90;;;;;;;;;;4959598;28;20415;-80
2021/12/28 00:21:14;;;;;;;30.05;11.75;;;;;;;;;;4947874;28;20039;-79
2021/12/28 00:23:41;;;;;;;26.40;11.70;;;;;;;;;;4947316;28;20058;-79
2021/12/28 00:26:11;;;;;;;22.17;10.85;;;;;;;;;;4943995;28;20031;-80
2021/12/28 00:28:37;;;;;;;21.75;12.20;;;;;;;;;;4941796;28;20034;-79
2021/12/28 00:31:04;;;;;;;31.90;12.85;;;;;;;;;;4942342;28;20027;-79
2021/12/28 00:33:30;;;;;;;22.48;11.55;;;;;;;;;;4962888;28;20038;-79
2021/12/28 00:35:56;;;;;;;29.70;12.10;;;;;;;;;;4947589;28;20038;-79
2021/12/28 00:38:23;;;;;;;27.83;12.63;;;;;;;;;;4960989;28;20034;-79
2021/12/28 00:40:50;;;;;;;30.55;12.90;;;;;;;;;;4965134;28;20051;-77
2021/12/28 00:43:17;;;;;;;29.38;13.35;;;;;;;;;;4979302;28;20057;-77
2021/12/28 00:45:43;;;;;;;27.08;12.90;;;;;;;;;;4960314;28;20529;-77
2021/12/28 00:48:09;;;;;;;28.15;11.20;;;;;;;;;;4979133;28;20031;-77
2021/12/28 00:50:36;;;;;;;24.60;12.00;;;;;;;;;;4959766;28;20031;-79
2021/12/28 00:53:02;;;;;;;30.60;13.00;;;;;;;;;;4985430;28;20086;-79
2021/12/28 00:55:28;;;;;;;29.35;12.85;;;;;;;;;;4967474;28;20058;-80
2021/12/28 00:57:54;;;;;;;26.50;12.70;;;;;;;;;;4961842;28;20042;-79
2021/12/28 01:00:30;;;;;;;31.42;11.82;;;;;;;;;;4976205;28;20039;-79
2021/12/28 01:02:57;;;;;;;23.33;12.07;;;;;;;;;;4967923;28;20494;-79
2021/12/28 01:05:24;;;;;;;26.73;12.70;;;;;;;;;;4968971;28;20170;-78
2021/12/28 01:07:50;;;;;;;30.98;13.23;;;;;;;;;;4976289;28;20042;-79
2021/12/28 01:10:21;;;;;;;30.48;13.50;;;;;;;;;;4963024;28;20394;-83
2021/12/28 01:12:49;;;;;;;30.10;12.43;;;;;;;;;;4977892;28;20486;-83
2021/12/28 01:15:16;;;;;;;27.73;11.90;;;;;;;;;;4963533;28;20033;-84
2021/12/28 01:17:42;;;;;;;31.45;13.10;;;;;;;;;;4976562;28;20054;-84
2021/12/28 01:20:09;;;;;;;28.90;13.68;;;;;;;;;;4982598;28;20498;-83
2021/12/28 01:22:35;;;;;;;31.48;14.23;;;;;;;;;;4966555;28;20031;-84
2021/12/28 01:25:02;;;;;;;35.13;13.25;;;;;;;;;;4978599;28;20044;-84
2021/12/28 01:27:28;;;;;;;37.50;15.38;;;;;;;;;;4967639;28;20675;-84
2021/12/28 01:29:54;;;;;;;30.50;14.20;;;;;;;;;;4968897;28;20034;-84
2021/12/28 01:32:20;;;;;;;32.38;14.88;;;;;;;;;;4983861;28;20269;-83
2021/12/28 01:34:46;;;;;;;26.08;11.65;;;;;;;;;;4960682;28;20039;-83
2021/12/28 01:37:12;;;;;;;38.03;14.90;;;;;;;;;;4982811;28;20034;-84
2021/12/28 01:39:38;;;;;;;36.85;13.45;;;;;;;;;;4978735;28;20030;-83
2021/12/28 01:42:06;;;;;;;33.72;13.45;;;;;;;;;;4963892;28;20047;-84
2021/12/28 01:44:33;;;;;;;22.73;10.65;;;;;;;;;;4958706;28;20083;-83
2021/12/28 01:46:59;;;;;;;38.70;14.93;;;;;;;;;;4951890;28;20371;-84
2021/12/28 01:49:25;;;;;;;36.92;15.65;;;;;;;;;;4959779;28;20373;-84
2021/12/28 01:51:52;;;;;;;26.35;12.77;;;;;;;;;;4960964;28;20031;-84
2021/12/28 01:54:18;;;;;;;36.03;14.00;;;;;;;;;;4943547;28;20031;-82
2021/12/28 01:56:45;;;;;;;39.05;16.15;;;;;;;;;;4962290;28;20027;-82
2021/12/28 01:59:12;;;;;;;46.15;15.63;;;;;;;;;;4956806;28;20058;-85
2021/12/28 02:01:38;;;;;;;45.45;17.13;;;;;;;;;;4954338;28;20035;-84
2021/12/28 02:04:12;;;;;;;43.35;15.98;;;;;;;;;;4943451;28;20249;-84
2021/12/28 02:06:39;;;;;;;44.15;16.27;;;;;;;;;;4956369;28;20130;-84
2021/12/28 02:09:05;;;;;;;39.30;16.08;;;;;;;;;;4957698;28;20033;-79
2021/12/28 02:11:31;;;;;;;51.45;16.95;;;;;;;;;;4936782;28;20492;-79
2021/12/28 02:13:58;;;;;;;56.42;17.42;;;;;;;;;;4945567;28;20039;-79
2021/12/28 02:16:24;;;;;;;42.70;17.42;;;;;;;;;;4953764;28;20554;-79
2021/12/28 02:18:50;;;;;;;42.80;18.08;;;;;;;;;;4946453;28;20034;-79
2021/12/28 02:21:16;;;;;;;55.75;18.17;;;;;;;;;;4960102;28;20516;-79
2021/12/28 02:23:42;;;;;;;72.60;20.60;;;;;;;;;;4938520;28;20031;-79
2021/12/28 02:26:09;;;;;;;65.45;18.70;;;;;;;;;;4957326;28;20113;-79
2021/12/28 02:28:35;;;;;;;59.78;19.83;;;;;;;;;;4940187;28;20035;-79
2021/12/28 02:31:02;;;;;;;119.63;24.23;;;;;;;;;;4944974;28;20027;-80
2021/12/28 02:33:28;;;;;;;86.97;21.05;;;;;;;;;;4956901;28;20039;-79
2021/12/28 02:35:59;;;;;;;75.35;20.65;;;;;;;;;;4963383;28;20046;-79
2021/12/28 02:38:25;;;;;;;83.35;19.92;;;;;;;;;;4959731;28;20038;-80
2021/12/28 02:40:51;;;;;;;69.65;18.63;;;;;;;;;;4947829;28;20064;-80
2021/12/28 02:43:25;;;;;;;141.63;27.30;;;;;;;;;;4950464;28;20062;-80
2021/12/28 02:45:59;;;;;;;188.38;31.70;;;;;;;;;;4955716;28;20049;-79
2021/12/28 02:48:25;;;;;;;92.10;22.30;;;;;;;;;;4939521;28;20058;-79
2021/12/28 02:50:55;;;;;;;126.07;25.77;;;;;;;;;;4939552;28;20535;-79
2021/12/28 02:53:22;;;;;;;87.82;22.52;;;;;;;;;;4961481;28;20058;-79
2021/12/28 02:55:48;;;;;;;88.18;22.33;;;;;;;;;;4938900;28;20039;-79
2021/12/28 02:58:26;;;;;;;75.30;22.10;;;;;;;;;;4942466;28;20713;-79
2021/12/28 03:00:57;;;;;;;96.07;23.83;;;;;;;;;;4948378;28;20074;-79
2021/12/28 03:03:24;;;;;;;112.90;22.02;;;;;;;;;;4955665;28;20158;-79
2021/12/28 03:05:52;;;;;;;219.85;32.92;;;;;;;;;;4958462;28;20651;-79
2021/12/28 03:08:20;;;;;;;207.23;33.85;;;;;;;;;;4957355;28;20102;-80
2021/12/28 03:10:46;;;;;;;116.30;27.50;;;;;;;;;;4960406;28;20063;-80
2021/12/28 03:13:21;;;;;;;172.45;33.65;;;;;;;;;;4939720;28;20050;-79
2021/12/28 03:15:47;;;;;;;227.45;34.47;;;;;;;;;;4944303;28;20094;-79
2021/12/28 03:18:13;;;;;;;203.35;31.30;;;;;;;;;;4935642;28;20034;-79
2021/12/28 03:20:39;;;;;;;111.50;25.58;;;;;;;;;;4959380;28;20038;-79
2021/12/28 03:23:06;;;;;;;170.35;30.13;;;;;;;;;;4946102;28;20035;-79
2021/12/28 03:25:32;;;;;;;232.52;37.50;;;;;;;;;;4943852;28;20113;-79
2021/12/28 03:28:02;;;;;;;196.95;33.17;;;;;;;;;;4944419;28;20032;-79
2021/12/28 03:30:28;;;;;;;243.55;37.65;;;;;;;;;;4961623;28;20094;-79
2021/12/28 03:32:55;;;;;;;111.68;26.30;;;;;;;;;;4946256;28;20339;-79
2021/12/28 03:35:21;;;;;;;113.97;24.95;;;;;;;;;;4942437;28;20081;-79
2021/12/28 03:37:47;;;;;;;123.43;26.33;;;;;;;;;;4946240;28;20514;-79
2021/12/28 03:40:14;;;;;;;138.30;29.40;;;;;;;;;;4955226;28;20039;-80
2021/12/28 03:42:47;;;;;;;162.27;31.38;;;;;;;;;;4967314;28;20122;-79
2021/12/28 03:45:13;;;;;;;210.63;35.53;;;;;;;;;;4976283;28;20057;-79
2021/12/28 03:47:39;;;;;;;214.13;33.08;;;;;;;;;;4958449;28;20042;-79
2021/12/28 03:50:06;;;;;;;363.73;49.42;;;;;;;;;;4961235;28;20023;-80
2021/12/28 03:52:32;;;;;;;201.35;34.15;;;;;;;;;;4978646;28;20105;-80
2021/12/28 03:54:58;;;;;;;289.52;42.42;;;;;;;;;;4962892;28;20106;-79
2021/12/28 03:57:24;;;;;;;169.25;32.75;;;;;;;;;;4958141;28;20542;-79
2021/12/28 03:59:50;;;;;;;109.13;24.20;;;;;;;;;;4979912;28;20101;-79
2021/12/28 04:02:16;;;;;;;276.33;41.17;;;;;;;;;;4962376;28;20043;-80
2021/12/28 04:04:42;;;;;;;144.38;29.35;;;;;;;;;;4970433;28;20116;-79
2021/12/28 04:07:12;;;;;;;284.30;40.88;;;;;;;;;;4963093;28;20085;-79
2021/12/28 04:09:57;;;;;;;183.38;33.10;;;;;;;;;;4976143;28;20022;-79
2021/12/28 04:12:23;;;;;;;145.88;30.90;;;;;;;;;;4966417;28;20113;-79
2021/12/28 04:14:49;;;;;;;152.55;28.42;;;;;;;;;;4964122;28;20118;-79
2021/12/28 04:17:16;;;;;;;334.35;47.17;;;;;;;;;;4960935;28;20090;-79
2021/12/28 04:19:42;;;;;;;126.28;29.05;;;;;;;;;;4962678;28;20026;-80
2021/12/28 04:22:08;;;;;;;156.57;31.40;;;;;;;;;;4969901;28;20026;-79
2021/12/28 04:24:34;;;;;;;144.93;30.90;;;;;;;;;;4961507;28;20089;-79
2021/12/28 04:27:00;;;;;;;183.48;34.85;;;;;;;;;;4963244;28;20168;-79
2021/12/28 04:29:26;;;;;;;148.30;29.52;;;;;;;;;;4966793;28;20041;-81
2021/12/28 04:31:52;;;;;;;156.13;32.03;;;;;;;;;;4978956;28;20030;-79
2021/12/28 04:34:18;;;;;;;183.40;32.40;;;;;;;;;;4962946;28;20026;-79
2021/12/28 04:36:45;;;;;;;309.10;43.35;;;;;;;;;;4958106;28;20517;-80
2021/12/28 04:39:11;;;;;;;166.35;31.42;;;;;;;;;;4962961;28;20269;-80
2021/12/28 04:41:37;;;;;;;152.88;31.23;;;;;;;;;;4968185;28;20040;-80
2021/12/28 04:44:03;;;;;;;165.35;29.95;;;;;;;;;;4964850;28;20046;-80
2021/12/28 04:46:30;;;;;;;150.82;30.42;;;;;;;;;;4963634;28;20062;-79
2021/12/28 04:48:56;;;;;;;186.90;32.03;;;;;;;;;;4964520;28;20046;-80
2021/12/28 04:51:23;;;;;;;310.17;42.40;;;;;;;;;;4966546;28;20383;-80
2021/12/28 04:53:49;;;;;;;495.92;60.92;;;;;;;;;;4972922;28;20041;-80
2021/12/28 04:56:15;;;;;;;313.60;42.67;;;;;;;;;;4968520;28;20080;-80
2021/12/28 04:58:41;;;;;;;166.63;32.75;;;;;;;;;;4962904;28;20061;-80
2021/12/28 05:01:08;;;;;;;235.25;39.42;;;;;;;;;;4961522;28;20443;-79
2021/12/28 05:03:34;;;;;;;315.73;40.55;;;;;;;;;;4979910;28;20042;-79
2021/12/28 05:06:00;;;;;;;331.73;45.92;;;;;;;;;;4963028;28;20045;-79
2021/12/28 05:08:26;;;;;;;223.80;36.83;;;;;;;;;;4958917;28;20035;-79
2021/12/28 05:10:52;;;;;;;149.80;32.67;;;;;;;;;;4968934;28;20040;-80
2021/12/28 05:13:18;;;;;;;193.30;33.25;;;;;;;;;;4959455;28;20026;-79
2021/12/28 05:15:46;;;;;;;333.33;45.60;;;;;;;;;;4964022;28;20034;-79
2021/12/28 05:18:13;;;;;;;347.63;48.60;;;;;;;;;;4977936;28;20030;-80
2021/12/28 05:20:39;;;;;;;393.83;51.65;;;;;;;;;;4958847;28;20037;-80
2021/12/28 05:23:05;;;;;;;229.02;38.20;;;;;;;;;;4981625;28;20513;-79
2021/12/28 05:25:32;;;;;;;277.13;42.08;;;;;;;;;;4963823;28;20122;-80
2021/12/28 05:27:58;;;;;;;222.98;33.88;;;;;;;;;;4966094;28;20031;-80
2021/12/28 05:30:24;;;;;;;402.98;49.63;;;;;;;;;;4964805;28;21113;-79
2021/12/28 05:32:50;;;;;;;270.95;38.67;;;;;;;;;;4965500;28;20084;-79
2021/12/28 05:35:17;;;;;;;331.55;44.65;;;;;;;;;;4978368;28;20026;-79
2021/12/28 05:37:43;;;;;;;372.33;50.75;;;;;;;;;;4967874;28;20568;-79
2021/12/28 05:40:11;;;;;;;174.98;33.05;;;;;;;;;;4980257;28;20393;-79
2021/12/28 05:42:37;;;;;;;168.80;32.25;;;;;;;;;;4961230;28;20039;-80
2021/12/28 05:45:04;;;;;;;114.95;27.05;;;;;;;;;;4965417;28;20506;-79
2021/12/28 05:47:30;;;;;;;119.72;27.08;;;;;;;;;;4958382;28;20054;-79
2021/12/28 05:49:56;;;;;;;93.82;24.35;;;;;;;;;;4981069;28;20391;-79
2021/12/28 05:52:22;;;;;;;125.38;30.77;;;;;;;;;;4963145;28;20375;-79
2021/12/28 05:54:48;;;;;;;71.47;22.13;;;;;;;;;;4980752;28;20470;-79
2021/12/28 05:57:15;;;;;;;85.78;24.52;;;;;;;;;;4957040;28;20082;-80
2021/12/28 05:59:41;;;;;;;90.40;23.52;;;;;;;;;;4963238;28;21341;-79
2021/12/28 06:02:07;;;;;;;91.97;26.30;;;;;;;;;;4957283;28;20034;-79
2021/12/28 06:04:33;;;;;;;69.85;23.35;;;;;;;;;;4980412;28;20050;-79
2021/12/28 06:06:59;;;;;;;65.90;19.63;;;;;;;;;;4961395;28;20026;-79
2021/12/28 06:09:25;;;;;;;97.88;25.40;;;;;;;;;;4969822;28;20121;-79
2021/12/28 06:11:51;;;;;;;95.70;24.02;;;;;;;;;;4964927;28;20109;-80
2021/12/28 06:14:17;;;;;;;69.78;20.52;;;;;;;;;;4976412;28;20054;-80
2021/12/28 06:16:43;;;;;;;75.30;22.90;;;;;;;;;;4965709;28;20497;-79
2021/12/28 06:19:09;;;;;;;77.03;24.23;;;;;;;;;;4978018;28;20442;-80
2021/12/28 06:21:36;;;;;;;44.97;14.32;;;;;;;;;;4977661;28;20050;-79
2021/12/28 06:24:03;;;;;;;77.95;23.92;;;;;;;;;;4961549;28;20057;-79
2021/12/28 06:26:30;;;;;;;78.13;22.08;;;;;;;;;;4980246;28;20039;-79
2021/12/28 06:28:57;;;;;;;82.57;24.33;;;;;;;;;;4962431;28;20077;-79
2021/12/28 06:31:23;;;;;;;76.30;23.13;;;;;;;;;;4963885;28;20038;-79
2021/12/28 06:33:49;;;;;;;77.43;22.58;;;;;;;;;;4965958;28;20030;-84
2021/12/28 06:36:15;;;;;;;75.95;21.67;;;;;;;;;;4964186;28;20038;-83
2021/12/28 06:38:41;;;;;;;91.53;23.17;;;;;;;;;;4965558;28;20080;-84
2021/12/28 06:41:08;;;;;;;68.80;20.45;;;;;;;;;;4964458;28;20049;-84
2021/12/28 06:43:35;;;;;;;74.22;22.05;;;;;;;;;;4957045;28;20047;-85
2021/12/28 06:46:01;;;;;;;56.83;16.30;;;;;;;;;;4937490;28;20038;-84
2021/12/28 06:48:27;;;;;;;82.70;25.33;;;;;;;;;;4963912;28;20038;-84
2021/12/28 06:50:53;;;;;;;78.13;20.58;;;;;;;;;;4942839;28;20038;-84
2021/12/28 06:53:19;;;;;;;101.03;24.13;;;;;;;;;;4948477;28;20035;-84
2021/12/28 06:55:45;;;;;;;83.93;23.02;;;;;;;;;;4946038;28;20565;-83
2021/12/28 06:58:12;;;;;;;92.53;24.08;;;;;;;;;;4958441;28;20066;-84
2021/12/28 07:00:39;;;;;;;70.53;20.55;;;;;;;;;;4944785;28;20380;-84
2021/12/28 07:03:05;;;;;;;80.40;22.17;;;;;;;;;;4939956;28;20129;-83
2021/12/28 07:05:32;;;;;;;71.85;22.75;;;;;;;;;;4943955;28;20065;-84
2021/12/28 07:07:58;;;;;;;66.72;19.90;;;;;;;;;;4943085;28;20035;-84
2021/12/28 07:10:24;;;;;;;68.93;21.02;;;;;;;;;;4944434;28;20031;-84
2021/12/28 07:12:50;;;;;;;86.60;24.15;;;;;;;;;;4939345;28;20365;-84
2021/12/28 07:15:17;;;;;;;61.78;20.35;;;;;;;;;;4946057;28;20054;-84
2021/12/28 07:17:43;;;;;;;66.80;20.98;;;;;;;;;;4956823;28;20035;-84
2021/12/28 07:20:09;;;;;;;78.30;22.60;;;;;;;;;;4944709;28;20039;-84
2021/12/28 07:22:36;;;;;;;43.45;15.80;;;;;;;;;;4962497;28;20034;-83
2021/12/28 07:25:02;;;;;;;55.53;17.48;;;;;;;;;;4960872;28;20031;-84
2021/12/28 07:27:28;;;;;;;45.83;15.70;;;;;;;;;;4961881;28;20490;-84
2021/12/28 07:29:54;;;;;;;86.40;22.67;;;;;;;;;;4940630;28;20028;-85
2021/12/28 07:32:20;;;;;;;65.28;18.17;;;;;;;;;;4942326;28;20380;-84
2021/12/28 07:34:46;;;;;;;85.75;22.13;;;;;;;;;;4941499;28;20507;-84
2021/12/28 07:37:12;;;;;;;75.78;21.50;;;;;;;;;;4944406;28;20050;-83
2021/12/28 07:39:38;;;;;;;75.50;21.75;;;;;;;;;;4962741;28;20026;-84
2021/12/28 07:42:04;;;;;;;73.30;22.65;;;;;;;;;;4950360;28;20043;-84
2021/12/28 07:44:30;;;;;;;74.30;20.35;;;;;;;;;;4957904;28;20102;-84
2021/12/28 07:46:57;;;;;;;80.88;23.30;;;;;;;;;;4965350;28;20042;-82
2021/12/28 07:49:23;;;;;;;78.13;21.17;;;;;;;;;;4950002;28;20039;-84
2021/12/28 07:51:49;;;;;;;87.57;20.92;;;;;;;;;;4951079;28;20499;-83
2021/12/28 07:54:15;;;;;;;69.75;21.25;;;;;;;;;;4968583;28;20501;-84
2021/12/28 07:56:42;;;;;;;68.65;20.10;;;;;;;;;;4946179;28;20046;-84
2021/12/28 07:59:08;;;;;;;55.95;19.15;;;;;;;;;;4948682;28;20502;-84
2021/12/28 08:01:35;;;;;;;49.97;16.08;;;;;;;;;;4966231;28;20037;-84
2021/12/28 08:04:01;;;;;;;49.78;14.68;;;;;;;;;;4953349;28;20089;-84
2021/12/28 08:06:27;;;;;;;52.92;16.52;;;;;;;;;;4964169;28;20033;-83
2021/12/28 08:08:53;;;;;;;62.75;17.55;;;;;;;;;;4961815;28;20034;-85
2021/12/28 08:11:19;;;;;;;41.35;12.35;;;;;;;;;;4968393;28;20023;-83
2021/12/28 08:13:45;;;;;;;48.78;14.73;;;;;;;;;;4945544;28;20095;-84
2021/12/28 08:16:11;;;;;;;54.22;16.83;;;;;;;;;;4952621;28;20034;-84
2021/12/28 08:18:37;;;;;;;48.03;15.73;;;;;;;;;;4951520;28;20038;-84
2021/12/28 08:21:03;;;;;;;44.28;13.13;;;;;;;;;;4954266;28;20064;-84
2021/12/28 08:23:29;;;;;;;45.60;14.38;;;;;;;;;;4947712;28;20503;-85
2021/12/28 08:25:55;;;;;;;49.58;15.15;;;;;;;;;;4951772;28;20051;-84
2021/12/28 08:28:21;;;;;;;51.50;13.65;;;;;;;;;;4961864;28;20460;-82
2021/12/28 08:30:54;;;;;;;37.85;13.88;;;;;;;;;;4968238;28;20085;-84
2021/12/28 08:33:20;;;;;;;45.25;14.35;;;;;;;;;;4964668;28;20033;-85
2021/12/28 08:35:46;;;;;;;30.67;10.05;;;;;;;;;;4952585;28;20035;-84
2021/12/28 08:38:12;;;;;;;31.55;12.35;;;;;;;;;;4952265;28;20038;-84
2021/12/28 08:40:40;;;;;;;34.40;11.27;;;;;;;;;;4964673;28;20027;-84
2021/12/28 08:43:07;;;;;;;29.30;10.38;;;;;;;;;;4954775;28;20030;-84
2021/12/28 08:45:33;;;;;;;37.80;11.00;;;;;;;;;;4962037;28;20151;-82
2021/12/28 08:47:59;;;;;;;31.58;10.90;;;;;;;;;;4964807;28;20301;-84
2021/12/28 08:50:26;;;;;;;36.05;11.65;;;;;;;;;;4967919;28;20023;-84
2021/12/28 08:52:52;;;;;;;22.83;7.03;;;;;;;;;;4964992;28;20034;-83
2021/12/28 08:55:20;;;;;;;19.52;6.25;;;;;;;;;;4968052;28;20033;-84
2021/12/28 08:57:46;;;;;;;37.90;10.63;;;;;;;;;;4962931;28;20042;-84
2021/12/28 09:00:14;;;;;;;21.50;8.82;;;;;;;;;;4965210;28;20115;-84
2021/12/28 09:02:40;;;;;;;37.40;10.88;;;;;;;;;;4962526;28;20038;-84
2021/12/28 09:05:07;;;;;;;30.75;10.70;;;;;;;;;;4970410;28;20616;-85
2021/12/28 09:07:33;;;;;;;28.88;8.95;;;;;;;;;;4969043;28;20030;-79
2021/12/28 09:09:59;;;;;;;10.30;4.85;;;;;;;;;;4971516;28;20461;-80
2021/12/28 09:12:26;;;;;;;19.05;7.28;;;;;;;;;;4964513;28;20105;-80
2021/12/28 09:14:52;;;;;;;31.42;8.95;;;;;;;;;;4966143;28;20031;-80
2021/12/28 09:17:18;;;;;;;22.95;8.95;;;;;;;;;;4963429;28;20039;-80
2021/12/28 09:19:44;;;;;;;33.30;9.02;;;;;;;;;;4964459;28;20030;-80
2021/12/28 09:22:11;;;;;;;18.20;6.80;;;;;;;;;;4968534;28;20506;-79
2021/12/28 09:24:44;;;;;;;28.58;7.65;;;;;;;;;;4979264;28;20034;-80
2021/12/28 09:27:10;;;;;;;22.30;8.10;;;;;;;;;;4981487;28;20038;-79
2021/12/28 09:29:37;;;;;;;20.63;7.03;;;;;;;;;;4955057;28;20482;-80
2021/12/28 09:32:03;;;;;;;29.83;7.80;;;;;;;;;;4978650;28;20025;-79
2021/12/28 09:34:29;;;;;;;34.67;7.45;;;;;;;;;;4964331;28;20046;-79
2021/12/28 09:36:56;;;;;;;31.90;7.72;;;;;;;;;;4977255;28;20026;-79
2021/12/28 09:39:27;;;;;;;12.23;3.80;;;;;;;;;;4958005;28;20038;-79
2021/12/28 09:41:54;;;;;;;35.95;7.50;;;;;;;;;;4964114;28;20113;-80
2021/12/28 09:44:21;;;;;;;19.88;6.63;;;;;;;;;;4955490;28;20133;-80
2021/12/28 09:46:48;;;;;;;33.63;7.63;;;;;;;;;;4944407;28;20035;-80
2021/12/28 09:49:14;;;;;;;31.77;7.95;;;;;;;;;;4942724;28;20039;-80
2021/12/28 09:51:40;;;;;;;31.52;7.82;;;;;;;;;;4939870;28;20035;-81
2021/12/28 09:54:06;;;;;;;32.17;9.05;;;;;;;;;;4947241;28;20095;-81
2021/12/28 09:56:33;;;;;;;28.17;7.70;;;;;;;;;;4944271;28;20091;-79
2021/12/28 09:59:00;;;;;;;33.85;9.70;;;;;;;;;;4960044;28;20058;-80
2021/12/28 10:01:26;;;;;;;18.55;7.25;;;;;;;;;;4942448;28;20027;-80
2021/12/28 10:03:53;;;;;;;26.15;6.53;;;;;;;;;;4962344;28;20046;-80
2021/12/28 10:06:25;;;;;;;28.60;8.43;;;;;;;;;;4945572;28;20038;-80
2021/12/28 10:09:04;;;;;;;29.98;7.80;;;;;;;;;;4942956;28;20372;-80
2021/12/28 10:11:31;;;;;;;26.73;6.85;;;;;;;;;;4939204;28;20038;-80
2021/12/28 10:14:10;;;;;;;28.38;8.07;;;;;;;;;;4958825;28;20019;-80
2021/12/28 10:17:02;;;;;;;38.75;8.23;;;;;;;;;;4942605;28;20571;-79
2021/12/28 10:19:31;;;;;;;25.55;6.25;;;;;;;;;;4955101;28;20051;-80
2021/12/28 10:21:58;;;;;;;29.48;8.27;;;;;;;;;;4949052;28;20031;-80
2021/12/28 10:24:31;;;;;;;25.23;6.05;;;;;;;;;;4940864;28;20035;-80
2021/12/28 10:27:10;;;;;;;30.30;7.18;;;;;;;;;;4943337;28;20038;-80
2021/12/28 10:29:45;;;;;;;27.50;6.45;;;;;;;;;;4931295;28;20094;-79
2021/12/28 10:32:28;;;;;;;29.08;6.57;;;;;;;;;;4941377;28;20047;-80
2021/12/28 10:34:59;;;;;;;23.08;5.63;;;;;;;;;;4948298;28;20476;-80
2021/12/28 10:37:27;;;;;;;33.65;6.57;;;;;;;;;;4948047;28;20045;-80
2021/12/28 10:39:56;;;;;;;20.10;4.85;;;;;;;;;;4949660;28;20050;-81
2021/12/28 10:42:40;;;;;;;21.20;6.55;;;;;;;;;;4962387;28;20053;-80
2021/12/28 10:45:22;;;;;;;26.20;6.65;;;;;;;;;;4946341;28;20462;-80
2021/12/28 10:47:49;;;;;;;32.20;6.55;;;;;;;;;;4946847;28;20046;-80
2021/12/28 10:50:36;;;;;;;33.60;6.47;;;;;;;;;;4940011;28;20058;-81
2021/12/28 10:53:12;;;;;;;26.50;6.18;;;;;;;;;;4943343;28;20015;-81
2021/12/28 10:55:39;;;;;;;24.98;7.00;;;;;;;;;;4940414;28;20475;-80
2021/12/28 10:58:05;;;;;;;19.08;5.70;;;;;;;;;;4940573;28;20395;-80
2021/12/28 11:00:41;;;;;;;33.47;7.57;;;;;;;;;;4944430;28;20545;-80
2021/12/28 11:03:16;;;;;;;40.95;7.50;;;;;;;;;;4940099;28;20069;-80
2021/12/28 11:05:43;;;;;;;25.00;5.23;;;;;;;;;;4941931;28;20438;-80
2021/12/28 11:08:09;;;;;;;18.52;5.05;;;;;;;;;;4940843;28;20039;-80
2021/12/28 11:10:36;;;;;;;35.63;7.00;;;;;;;;;;4960387;28;20019;-80
2021/12/28 11:13:03;;;;;;;23.75;5.75;;;;;;;;;;4946508;28;20026;-79
2021/12/28 11:15:36;;;;;;;39.10;7.45;;;;;;;;;;4942884;28;20506;-79
2021/12/28 11:18:15;;;;;;;33.05;6.03;;;;;;;;;;4946818;28;20463;-79
2021/12/28 11:20:41;;;;;;;15.65;4.90;;;;;;;;;;4963598;28;20030;-79
2021/12/28 11:23:11;;;;;;;22.73;6.85;;;;;;;;;;4957589;28;20053;-79
2021/12/28 11:25:38;;;;;;;22.08;5.80;;;;;;;;;;4943554;28;20389;-80
2021/12/28 11:28:26;;;;;;;20.55;5.13;;;;;;;;;;4948797;28;20046;-79
2021/12/28 11:31:08;;;;;;;22.20;6.80;;;;;;;;;;4942954;28;20033;-80
2021/12/28 11:33:45;;;;;;;12.48;4.90;;;;;;;;;;4947884;28;20582;-80
2021/12/28 11:36:11;;;;;;;16.67;5.13;;;;;;;;;;4963584;28;20023;-80
2021/12/28 11:38:38;;;;;;;23.58;6.80;;;;;;;;;;4948979;28;20118;-80
2021/12/28 11:41:05;;;;;;;19.00;5.63;;;;;;;;;;4966213;28;20474;-79
2021/12/28 11:43:39;;;;;;;26.42;6.80;;;;;;;;;;4950683;28;20077;-80
2021/12/28 11:46:06;;;;;;;35.80;6.43;;;;;;;;;;4966383;28;20562;-80
2021/12/28 11:48:32;;;;;;;16.05;5.50;;;;;;;;;;4964425;28;20070;-79
2021/12/28 11:50:58;;;;;;;28.83;8.32;;;;;;;;;;4944840;28;20384;-80
2021/12/28 11:53:26;;;;;;;26.58;6.68;;;;;;;;;;4948690;28;20041;-79
2021/12/28 11:55:52;;;;;;;23.50;7.97;;;;;;;;;;4945981;28;20738;-79
2021/12/28 11:58:18;;;;;;;17.80;6.55;;;;;;;;;;4948879;28;20042;-79
2021/12/28 12:00:44;;;;;;;27.30;7.78;;;;;;;;;;4944784;28;20043;-80
2021/12/28 12:03:30;;;;;;;24.35;6.90;;;;;;;;;;4947810;28;20422;-80
2021/12/28 12:05:56;;;;;;;6.50;2.83;;;;;;;;;;4948525;28;20041;-80
2021/12/28 12:08:22;;;;;;;29.33;8.23;;;;;;;;;;4964741;28;20034;-80
2021/12/28 12:10:50;;;;;;;30.92;8.07;;;;;;;;;;4940292;28;20035;-80
2021/12/28 12:13:21;;;;;;;26.00;8.35;;;;;;;;;;4961561;28;20430;-80
2021/12/28 12:15:51;;;;;;;19.13;7.07;;;;;;;;;;4948819;28;20042;-80
2021/12/28 12:18:18;;;;;;;23.23;7.88;;;;;;;;;;4944675;28;20394;-80
2021/12/28 12:20:46;;;;;;;28.15;6.95;;;;;;;;;;4948973;28;20400;-80
2021/12/28 12:23:13;;;;;;;17.67;6.05;;;;;;;;;;4945415;28;20130;-80
2021/12/28 12:25:45;;;;;;;30.48;7.65;;;;;;;;;;4947175;28;20027;-81
2021/12/28 12:28:11;;;;;;;23.83;7.35;;;;;;;;;;4945625;28;20616;-81
2021/12/28 12:30:51;;;;;;;27.05;7.82;;;;;;;;;;4958217;28;20030;-80
2021/12/28 12:33:18;;;;;;;27.27;8.00;;;;;;;;;;4949976;28;20368;-80
2021/12/28 12:35:47;;;;;;;21.33;7.47;;;;;;;;;;4944507;28;20042;-80
2021/12/28 12:38:13;;;;;;;16.52;6.85;;;;;;;;;;4943740;28;20038;-80
2021/12/28 12:41:00;;;;;;;22.13;6.95;;;;;;;;;;4942547;28;20521;-81
2021/12/28 12:43:27;;;;;;;16.42;6.13;;;;;;;;;;4948644;28;20523;-80
2021/12/28 12:46:28;;;;;;;16.17;6.43;;;;;;;;;;4976973;28;20042;-81
2021/12/28 12:48:54;;;;;;;17.15;5.15;;;;;;;;;;4982713;28;20035;-81
2021/12/28 12:53:47;;;;;;;13.52;6.22;;;;;;;;;;4978144;28;20457;-84
2021/12/28 12:56:27;;;;;;;20.48;6.55;;;;;;;;;;4964061;28;20026;-83
2021/12/28 12:58:55;;;;;;;19.05;6.60;;;;;;;;;;4975898;28;20053;-84
2021/12/28 13:01:27;;;;;;;19.00;6.45;;;;;;;;;;4982274;28;20482;-83
2021/12/28 13:03:58;;;;;;;13.45;6.85;;;;;;;;;;4968821;28;20531;-84
2021/12/28 13:06:42;;;;;;;15.05;6.13;;;;;;;;;;4962371;28;20545;-84
2021/12/28 13:09:12;;;;;;;17.08;6.75;;;;;;;;;;4969460;28;20101;-84
2021/12/28 13:11:39;;;;;;;15.95;5.28;;;;;;;;;;4967338;28;20038;-84
2021/12/28 13:14:05;;;;;;;22.83;6.72;;;;;;;;;;4966335;28;20054;-84
2021/12/28 13:16:32;;;;;;;16.83;6.72;;;;;;;;;;4977668;28;20502;-84
2021/12/28 13:19:07;;;;;;;17.67;7.10;;;;;;;;;;4985522;28;20042;-84
2021/12/28 13:21:33;;;;;;;28.02;7.47;;;;;;;;;;4965235;28;20027;-85
2021/12/28 13:24:09;;;;;;;15.20;6.63;;;;;;;;;;4961396;28;20031;-85
2021/12/28 13:26:49;;;;;;;16.30;7.18;;;;;;;;;;4962550;28;20486;-85
2021/12/28 13:29:25;;;;;;;12.05;6.38;;;;;;;;;;4958869;28;20255;-85
2021/12/28 13:31:52;;;;;;;24.98;7.53;;;;;;;;;;4965609;28;20022;-85
2021/12/28 13:34:18;;;;;;;19.98;7.60;;;;;;;;;;4972359;28;20034;-85
2021/12/28 13:36:51;;;;;;;24.48;7.63;;;;;;;;;;4962894;28;20054;-86
2021/12/28 13:39:17;;;;;;;18.30;8.20;;;;;;;;;;4963587;28;20025;-85
2021/12/28 13:41:50;;;;;;;18.95;7.50;;;;;;;;;;4965981;28;20363;-84
2021/12/28 13:44:16;;;;;;;22.25;9.13;;;;;;;;;;4964635;28;20030;-85
2021/12/28 13:46:42;;;;;;;20.85;8.15;;;;;;;;;;4958859;28;20067;-84
2021/12/28 13:49:09;;;;;;;22.55;9.23;;;;;;;;;;4961133;28;20073;-85
2021/12/28 13:51:35;;;;;;;23.27;9.35;;;;;;;;;;4953344;28;20086;-85
2021/12/28 13:54:04;;;;;;;19.02;8.20;;;;;;;;;;4963713;28;20041;-85
2021/12/28 13:56:36;;;;;;;22.33;9.57;;;;;;;;;;4959677;28;20026;-85
2021/12/28 13:59:06;;;;;;;27.65;8.07;;;;;;;;;;4963941;28;20035;-85
2021/12/28 14:01:39;;;;;;;16.83;8.45;;;;;;;;;;4946937;28;20041;-85
2021/12/28 14:04:09;;;;;;;28.80;9.00;;;;;;;;;;4947020;28;20027;-84
2021/12/28 14:06:39;;;;;;;26.65;9.07;;;;;;;;;;4945574;28;20050;-84
2021/12/28 14:09:07;;;;;;;21.67;9.38;;;;;;;;;;4939220;28;20058;-84
2021/12/28 14:11:34;;;;;;;21.05;10.40;;;;;;;;;;4941597;28;20041;-83
2021/12/28 14:14:01;;;;;;;26.73;9.95;;;;;;;;;;4958545;28;20063;-84
2021/12/28 14:16:27;;;;;;;19.13;8.38;;;;;;;;;;4945835;28;20022;-84
2021/12/28 14:18:54;;;;;;;30.17;9.70;;;;;;;;;;4946210;28;20039;-83
2021/12/28 14:21:20;;;;;;;22.27;9.50;;;;;;;;;;4945568;28;20487;-83
2021/12/28 14:23:54;;;;;;;26.67;10.23;;;;;;;;;;4943579;28;20394;-83
2021/12/28 14:26:21;;;;;;;20.95;8.68;;;;;;;;;;4947182;28;20406;-83